Time;durP1;ratioP1;P1;durP2;ratioP2;P2;SDS_P1;SDS_P2;PMS_P1;PMS_P2;Temp;Humidity;BMP_temperature;BMP_pressure;BME280_temperature;BME280_humidity;BME280_pressure;Samples;Min_cycle;Max_cycle;Signal;HPM_P1;HPM_P2
2023/07/31 00:01:03;;;;;;;3.83;1.50;;;16.50;1.00;;;;;;5054332;28;20205;-81
2023/07/31 00:03:29;;;;;;;4.47;1.77;;;16.50;99.90;;;;;;5036165;28;20193;-80
2023/07/31 00:05:54;;;;;;;3.83;1.77;;;16.50;1.00;;;;;;5036267;28;20263;-80
2023/07/31 00:08:20;;;;;;;5.70;2.10;;;16.50;1.00;;;;;;5035787;28;20178;-80
2023/07/31 00:10:45;;;;;;;5.97;1.87;;;16.50;1.00;;;;;;5053777;28;20178;-81
2023/07/31 00:13:11;;;;;;;3.23;1.57;;;16.40;55.30;;;;;;5053803;28;20190;-80
2023/07/31 00:15:36;;;;;;;3.90;1.77;;;16.40;99.90;;;;;;5053933;28;20182;-80
2023/07/31 00:18:02;;;;;;;3.03;1.70;;;16.40;99.90;;;;;;5038678;28;20547;-81
2023/07/31 00:20:27;;;;;;;2.97;1.53;;;16.40;99.90;;;;;;5057597;28;20554;-82
2023/07/31 00:22:53;;;;;;;4.97;1.90;;;16.40;99.90;;;;;;5039683;28;20225;-80
2023/07/31 00:25:18;;;;;;;3.27;1.73;;;16.40;1.00;;;;;;5040122;28;20174;-80
2023/07/31 00:27:45;;;;;;;5.93;2.10;;;16.40;1.00;;;;;;5058216;28;20176;-80
2023/07/31 00:30:11;;;;;;;4.67;1.70;;;16.40;1.00;;;;;;5057954;28;20189;-80
2023/07/31 00:32:37;;;;;;;3.80;1.93;;;16.40;99.90;;;;;;5039830;28;20251;-80
2023/07/31 00:35:03;;;;;;;4.27;1.93;;;16.30;1.00;;;;;;5039721;28;20593;-80
2023/07/31 00:37:28;;;;;;;3.33;1.57;;;16.40;99.90;;;;;;5057605;28;20174;-80
2023/07/31 00:39:54;;;;;;;3.23;1.70;;;16.40;1.00;;;;;;5039372;28;20736;-80
2023/07/31 00:42:19;;;;;;;2.53;1.50;;;16.40;99.90;;;;;;5039620;28;20193;-80
2023/07/31 00:44:45;;;;;;;9.70;2.00;;;16.40;99.90;;;;;;5039515;28;20184;-80
2023/07/31 00:47:10;;;;;;;3.93;1.70;;;16.40;99.90;;;;;;5057093;28;20177;-80
2023/07/31 00:49:36;;;;;;;4.47;1.60;;;16.50;99.90;;;;;;5056502;28;20174;-77
2023/07/31 00:52:02;;;;;;;4.87;2.10;;;16.60;99.90;;;;;;5056776;28;20252;-80
2023/07/31 00:54:28;;;;;;;3.50;1.70;;;16.60;99.90;;;;;;5039476;28;20180;-80
2023/07/31 00:56:54;;;;;;;4.10;1.60;;;16.60;1.00;;;;;;5038626;28;20169;-80
2023/07/31 00:59:20;;;;;;;4.77;1.83;;;16.60;1.00;;;;;;5057139;28;20197;-80
2023/07/31 01:01:46;;;;;;;3.37;1.67;;;16.50;1.00;;;;;;5039025;28;20190;-80
2023/07/31 01:04:13;;;;;;;3.13;1.90;;;16.50;1.00;;;;;;5056960;28;20625;-80
2023/07/31 01:06:44;;;;;;;3.57;1.80;;;16.50;1.00;;;;;;5039292;28;20237;-80
2023/07/31 01:09:44;;;;;;;4.23;2.13;;;16.40;36.90;;;;;;5056995;28;20177;-79
2023/07/31 01:12:14;;;;;;;2.93;1.70;;;16.30;72.30;;;;;;5039122;28;20272;-80
2023/07/31 01:14:39;;;;;;;3.03;1.67;;;16.30;99.90;;;;;;5056956;28;20178;-81
2023/07/31 01:17:05;;;;;;;3.57;1.77;;;16.20;99.90;;;;;;5038651;28;20255;-80
2023/07/31 01:19:31;;;;;;;3.17;1.80;;;16.20;99.90;;;;;;5038938;28;20189;-80
2023/07/31 01:22:02;;;;;;;4.97;1.97;;;16.20;99.90;;;;;;5038515;28;20194;-81
2023/07/31 01:24:41;;;;;;;4.30;2.40;;;16.10;99.90;;;;;;5038352;28;20170;-80
2023/07/31 01:27:12;;;;;;;2.63;1.80;;;16.10;99.90;;;;;;5056445;28;20184;-80
2023/07/31 01:29:57;;;;;;;4.03;1.80;;;16.10;99.90;;;;;;5037449;28;20200;-80
2023/07/31 01:32:24;;;;;;;3.97;1.90;;;16.10;99.90;;;;;;5038491;28;20691;-80
2023/07/31 01:34:50;;;;;;;5.07;1.97;;;16.00;99.90;;;;;;5038582;28;20265;-80
2023/07/31 01:37:16;;;;;;;4.00;1.90;;;16.00;99.90;;;;;;5038268;28;20182;-80
2023/07/31 01:39:41;;;;;;;3.47;1.60;;;16.00;99.90;;;;;;5038183;28;20201;-79
2023/07/31 01:42:07;;;;;;;4.87;1.97;;;16.00;99.90;;;;;;5056512;28;20200;-81
2023/07/31 01:44:33;;;;;;;3.10;2.00;;;16.00;99.90;;;;;;5056421;28;20215;-81
2023/07/31 01:47:00;;;;;;;6.00;2.13;;;15.90;99.90;;;;;;5038602;28;20172;-80
2023/07/31 01:49:25;;;;;;;3.30;2.00;;;15.90;99.90;;;;;;5056340;28;20698;-80
2023/07/31 01:51:51;;;;;;;3.90;1.90;;;15.90;99.90;;;;;;5037935;28;20201;-81
2023/07/31 01:54:17;;;;;;;3.80;2.10;;;15.90;99.90;;;;;;5039017;28;20170;-80
2023/07/31 01:56:42;;;;;;;3.10;2.10;;;15.90;99.90;;;;;;5056372;28;20210;-80
2023/07/31 01:59:08;;;;;;;4.27;1.70;;;15.80;99.90;;;;;;5038145;28;20197;-80
2023/07/31 02:01:33;;;;;;;3.00;1.77;;;15.80;99.90;;;;;;5037646;28;20197;-80
2023/07/31 02:03:59;;;;;;;5.43;1.90;;;15.80;99.90;;;;;;5056006;28;20197;-80
2023/07/31 02:06:24;;;;;;;3.63;2.00;;;15.80;99.90;;;;;;5056061;28;20275;-79
2023/07/31 02:08:50;;;;;;;3.90;2.10;;;15.70;99.90;;;;;;5038149;28;20177;-80
2023/07/31 02:11:16;;;;;;;3.83;2.20;;;15.80;99.90;;;;;;5038145;28;20657;-80
2023/07/31 02:13:41;;;;;;;3.07;2.00;;;15.70;99.90;;;;;;5055998;28;20198;-79
2023/07/31 02:16:07;;;;;;;3.77;1.70;;;15.70;99.90;;;;;;5055927;28;20587;-79
2023/07/31 02:18:34;;;;;;;3.20;2.03;;;15.80;99.90;;;;;;5037692;28;20726;-80
2023/07/31 02:20:59;;;;;;;3.97;2.00;;;15.80;99.90;;;;;;5037532;28;20205;-79
2023/07/31 02:23:25;;;;;;;5.23;2.30;;;15.70;99.90;;;;;;5038390;28;20193;-80
2023/07/31 02:25:50;;;;;;;4.00;2.00;;;15.70;99.90;;;;;;5055821;28;20177;-79
2023/07/31 02:28:16;;;;;;;5.10;1.87;;;15.70;99.90;;;;;;5038292;28;20189;-79
2023/07/31 02:30:46;;;;;;;3.10;2.20;;;15.70;99.90;;;;;;5037606;28;20177;-79
2023/07/31 02:33:11;;;;;;;4.10;2.10;;;15.70;99.90;;;;;;5038453;28;20217;-79
2023/07/31 02:35:37;;;;;;;4.13;2.27;;;15.70;99.90;;;;;;5037613;28;20556;-81
2023/07/31 02:38:02;;;;;;;3.30;1.90;;;15.70;99.90;;;;;;5038389;28;20184;-79
2023/07/31 02:40:28;;;;;;;6.93;2.30;;;15.70;99.90;;;;;;5037541;28;20205;-79
2023/07/31 02:42:53;;;;;;;4.13;2.10;;;15.70;99.90;;;;;;5038207;28;20197;-79
2023/07/31 02:45:19;;;;;;;6.17;2.17;;;15.70;99.90;;;;;;5055795;28;20176;-80
2023/07/31 02:47:44;;;;;;;4.00;2.10;;;15.70;99.90;;;;;;5037761;28;20188;-79
2023/07/31 02:50:10;;;;;;;3.20;1.80;;;15.70;99.90;;;;;;5055907;28;20169;-79
2023/07/31 02:52:36;;;;;;;2.87;1.90;;;15.70;99.90;;;;;;5037774;28;20251;-79
2023/07/31 02:55:01;;;;;;;2.53;1.80;;;15.70;99.90;;;;;;5037876;28;20181;-79
2023/07/31 02:57:27;;;;;;;3.20;2.17;;;15.70;99.90;;;;;;5055727;28;20328;-79
2023/07/31 02:59:52;;;;;;;3.40;2.00;;;15.70;99.90;;;;;;5037353;28;20629;-79
2023/07/31 03:02:18;;;;;;;4.13;1.90;;;15.70;99.90;;;;;;5037279;28;20240;-81
2023/07/31 03:04:43;;;;;;;3.07;2.20;;;15.80;99.90;;;;;;5055753;28;20169;-79
2023/07/31 03:07:09;;;;;;;2.73;2.07;;;15.80;99.90;;;;;;5037646;28;20232;-79
2023/07/31 03:09:35;;;;;;;3.13;1.90;;;15.80;99.90;;;;;;5037230;28;20267;-79
2023/07/31 03:12:00;;;;;;;4.63;1.93;;;15.70;99.90;;;;;;5055269;28;20197;-79
2023/07/31 03:14:28;;;;;;;5.00;2.10;;;15.80;99.90;;;;;;5037767;28;20236;-79
2023/07/31 03:16:54;;;;;;;4.80;2.00;;;15.80;99.90;;;;;;5054756;28;20247;-78
2023/07/31 03:19:20;;;;;;;3.63;1.90;;;15.80;99.90;;;;;;5037074;28;20607;-79
2023/07/31 03:21:45;;;;;;;4.27;1.97;;;15.90;99.90;;;;;;5037070;28;20189;-79
2023/07/31 03:24:12;;;;;;;4.47;1.90;;;15.90;99.90;;;;;;5037344;28;20174;-80
2023/07/31 03:26:38;;;;;;;4.17;2.00;;;15.90;99.90;;;;;;5037267;28;20174;-80
2023/07/31 03:29:03;;;;;;;2.70;1.93;;;15.90;99.90;;;;;;5036968;28;20652;-79
2023/07/31 03:31:29;;;;;;;4.33;1.97;;;15.90;99.90;;;;;;5037079;28;20180;-79
2023/07/31 03:33:54;;;;;;;3.60;2.10;;;15.90;99.90;;;;;;5037093;28;20187;-79
2023/07/31 03:36:20;;;;;;;3.93;2.17;;;15.90;99.90;;;;;;5055124;28;20243;-79
2023/07/31 03:38:46;;;;;;;4.83;2.00;;;15.90;99.90;;;;;;5037177;28;20182;-79
2023/07/31 03:41:12;;;;;;;4.03;1.90;;;15.90;99.90;;;;;;5036929;28;20672;-79
2023/07/31 03:43:38;;;;;;;3.60;2.10;;;16.00;99.90;;;;;;5037356;28;20197;-79
2023/07/31 03:46:03;;;;;;;3.50;1.87;;;16.00;99.90;;;;;;5055095;28;20259;-79
2023/07/31 03:48:29;;;;;;;2.90;2.10;;;16.00;99.90;;;;;;5037442;28;20631;-79
2023/07/31 03:50:55;;;;;;;4.23;2.20;;;16.00;99.90;;;;;;5036716;28;20177;-79
2023/07/31 03:53:20;;;;;;;7.70;2.10;;;16.00;99.90;;;;;;5058306;28;20193;-79
2023/07/31 03:55:46;;;;;;;3.67;1.83;;;16.00;99.90;;;;;;5041137;28;20279;-80
2023/07/31 03:58:12;;;;;;;3.33;2.07;;;16.00;99.90;;;;;;5041509;28;20224;-79
2023/07/31 04:00:37;;;;;;;3.57;2.17;;;15.90;99.90;;;;;;5058455;28;20201;-79
2023/07/31 04:03:03;;;;;;;4.83;1.93;;;16.00;99.90;;;;;;5058983;28;20199;-79
2023/07/31 04:05:31;;;;;;;5.73;2.10;;;16.00;99.90;;;;;;5040812;28;20177;-80
2023/07/31 04:07:57;;;;;;;3.33;2.00;;;16.00;99.90;;;;;;5040987;28;20170;-79
2023/07/31 04:10:23;;;;;;;3.33;1.93;;;16.00;86.80;;;;;;5040593;28;20181;-81
2023/07/31 04:12:48;;;;;;;4.47;2.50;;;16.00;99.90;;;;;;5058796;28;20197;-79
2023/07/31 04:15:14;;;;;;;4.80;2.27;;;16.00;65.40;;;;;;5058492;28;20257;-80
2023/07/31 04:17:39;;;;;;;2.80;1.93;;;16.00;86.10;;;;;;5040543;28;20181;-80
2023/07/31 04:20:05;;;;;;;3.40;2.40;;;16.00;92.90;;;;;;5057894;28;20194;-79
2023/07/31 04:22:31;;;;;;;5.23;2.23;;;16.10;99.90;;;;;;5040446;28;20206;-79
2023/07/31 04:24:56;;;;;;;2.77;2.07;;;16.10;79.10;;;;;;5041198;28;20170;-79
2023/07/31 04:27:22;;;;;;;3.80;2.30;;;16.10;98.80;;;;;;5040611;28;20173;-79
2023/07/31 04:29:48;;;;;;;3.17;2.00;;;16.10;99.90;;;;;;5040129;28;20268;-79
2023/07/31 04:32:16;;;;;;;3.27;2.10;;;16.10;99.90;;;;;;5041878;28;20216;-79
2023/07/31 04:34:42;;;;;;;4.27;2.17;;;16.10;99.90;;;;;;5058410;28;20181;-79
2023/07/31 04:37:07;;;;;;;5.33;2.70;;;16.10;99.90;;;;;;5041028;28;20182;-79
2023/07/31 04:39:33;;;;;;;4.00;2.30;;;16.10;99.90;;;;;;5057865;28;20217;-79
2023/07/31 04:41:58;;;;;;;4.33;2.33;;;16.10;99.90;;;;;;5040214;28;20198;-80
2023/07/31 04:44:24;;;;;;;3.87;2.13;;;16.10;99.90;;;;;;5039950;28;20182;-79
2023/07/31 04:46:49;;;;;;;4.53;2.40;;;16.10;99.90;;;;;;5058699;28;20252;-82
2023/07/31 04:49:15;;;;;;;5.13;2.40;;;16.10;99.90;;;;;;5045685;28;20178;-82
2023/07/31 04:51:41;;;;;;;3.40;2.13;;;16.10;99.90;;;;;;5063671;28;20239;-82
2023/07/31 04:54:06;;;;;;;4.23;1.97;;;16.20;99.90;;;;;;5063549;28;20170;-82
2023/07/31 04:56:32;;;;;;;4.53;2.40;;;16.20;99.90;;;;;;5045435;28;20253;-82
2023/07/31 04:58:57;;;;;;;4.50;2.30;;;16.20;92.50;;;;;;5062786;28;20527;-83
2023/07/31 05:01:23;;;;;;;3.30;1.73;;;16.20;99.90;;;;;;5064032;28;20254;-83
2023/07/31 05:03:48;;;;;;;4.90;2.07;;;16.20;37.20;;;;;;5044963;28;20222;-79
2023/07/31 05:06:15;;;;;;;4.07;2.20;;;16.20;98.60;;;;;;5044865;28;20225;-81
2023/07/31 05:08:40;;;;;;;5.20;2.10;;;16.30;1.00;;;;;;5063858;28;20188;-80
2023/07/31 05:11:06;;;;;;;3.50;2.10;;;16.40;1.00;;;;;;5062244;28;20174;-81
2023/07/31 05:13:31;;;;;;;4.03;1.90;;;16.40;1.00;;;;;;5041238;28;20570;-81
2023/07/31 05:15:57;;;;;;;4.37;2.17;;;16.40;1.00;;;;;;5059959;28;20169;-81
2023/07/31 05:18:23;;;;;;;4.40;2.20;;;16.40;1.00;;;;;;5043382;28;20170;-82
2023/07/31 05:20:48;;;;;;;3.77;2.20;;;16.40;1.00;;;;;;5040753;28;20250;-82
2023/07/31 05:23:14;;;;;;;4.33;2.70;;;16.50;1.00;;;;;;5057111;28;20229;-84
2023/07/31 05:25:40;;;;;;;5.57;2.50;;;16.50;1.00;;;;;;5038174;28;20189;-81
2023/07/31 05:28:05;;;;;;;4.77;2.17;;;16.50;1.00;;;;;;5038049;28;20173;-81
2023/07/31 05:30:31;;;;;;;4.27;2.27;;;16.50;1.00;;;;;;5056746;28;20640;-82
2023/07/31 05:32:57;;;;;;;5.23;2.20;;;16.50;12.20;;;;;;5056146;28;20217;-79
2023/07/31 05:35:22;;;;;;;5.20;2.37;;;16.50;1.00;;;;;;5038642;28;20174;-83
2023/07/31 05:37:48;;;;;;;4.57;2.53;;;16.50;1.00;;;;;;5039300;28;20178;-79
2023/07/31 05:40:14;;;;;;;4.47;2.30;;;16.50;1.00;;;;;;5058123;28;20259;-80
2023/07/31 05:42:40;;;;;;;4.33;2.27;;;16.50;34.30;;;;;;5058952;28;20193;-81
2023/07/31 05:45:09;;;;;;;4.37;2.10;;;16.50;1.00;;;;;;5059103;28;20176;-80
2023/07/31 05:47:35;;;;;;;3.83;2.60;;;16.60;1.00;;;;;;5039206;28;20173;-83
2023/07/31 05:50:01;;;;;;;3.70;2.40;;;16.50;1.00;;;;;;5038643;28;20261;-80
2023/07/31 05:52:27;;;;;;;3.70;2.00;;;16.50;1.00;;;;;;5056199;28;20331;-83
2023/07/31 05:54:52;;;;;;;5.07;2.00;;;16.60;5.00;;;;;;5056636;28;20177;-79
2023/07/31 05:57:18;;;;;;;3.23;2.30;;;16.50;1.00;;;;;;5038383;28;20173;-78
2023/07/31 05:59:44;;;;;;;4.13;2.30;;;16.50;72.20;;;;;;5056776;28;20201;-78
2023/07/31 06:02:09;;;;;;;3.63;2.30;;;16.50;99.90;;;;;;5056651;28;20189;-81
2023/07/31 06:04:35;;;;;;;4.67;2.23;;;16.50;99.90;;;;;;5039318;28;20173;-77
2023/07/31 06:07:00;;;;;;;5.27;2.30;;;16.50;99.90;;;;;;5057495;28;20174;-77
2023/07/31 06:09:26;;;;;;;5.13;2.17;;;16.50;99.90;;;;;;5057283;28;20178;-78
2023/07/31 06:11:52;;;;;;;3.87;2.03;;;16.50;99.90;;;;;;5039783;28;20197;-81
2023/07/31 06:14:17;;;;;;;3.27;2.10;;;16.50;95.40;;;;;;5042145;28;20217;-81
2023/07/31 06:16:44;;;;;;;2.73;2.43;;;16.50;99.90;;;;;;5042148;28;20181;-81
2023/07/31 06:19:09;;;;;;;3.33;2.00;;;16.50;94.30;;;;;;5041501;28;20185;-82
2023/07/31 06:21:37;;;;;;;4.30;2.67;;;16.50;63.40;;;;;;5059517;28;20174;-82
2023/07/31 06:24:03;;;;;;;3.87;2.33;;;16.50;51.50;;;;;;5056384;28;20548;-82
2023/07/31 06:26:28;;;;;;;5.40;2.30;;;16.50;1.00;;;;;;5049676;28;20192;-82
2023/07/31 06:28:54;;;;;;;4.83;2.50;;;16.50;35.20;;;;;;5040676;28;20185;-82
2023/07/31 06:31:22;;;;;;;3.60;2.07;;;16.50;14.90;;;;;;5058928;28;20200;-82
2023/07/31 06:33:49;;;;;;;5.47;2.27;;;16.50;96.20;;;;;;5058906;28;20197;-82
2023/07/31 06:36:14;;;;;;;3.00;2.13;;;16.60;17.20;;;;;;5041919;28;20174;-82
2023/07/31 06:38:40;;;;;;;3.20;2.20;;;16.70;1.00;;;;;;5058738;28;20180;-83
2023/07/31 06:41:05;;;;;;;5.17;2.47;;;16.70;1.00;;;;;;5041430;28;20205;-82
2023/07/31 06:43:31;;;;;;;4.03;2.40;;;16.70;1.00;;;;;;5058591;28;20268;-80
2023/07/31 06:45:56;;;;;;;5.90;2.70;;;16.70;1.00;;;;;;5039278;28;20182;-81
2023/07/31 06:48:22;;;;;;;4.73;2.20;;;16.80;1.00;;;;;;5057322;28;20193;-82
2023/07/31 06:50:47;;;;;;;6.33;2.43;;;16.80;1.00;;;;;;5040570;28;20216;-82
2023/07/31 06:53:13;;;;;;;4.33;2.33;;;16.80;1.00;;;;;;5040061;28;20201;-81
2023/07/31 06:55:39;;;;;;;2.87;2.20;;;16.80;1.00;;;;;;5040589;28;20189;-81
2023/07/31 06:58:04;;;;;;;4.87;2.40;;;16.80;1.00;;;;;;5058555;28;20174;-82
2023/07/31 07:00:30;;;;;;;5.57;2.50;;;16.80;1.00;;;;;;5040241;28;20201;-81
2023/07/31 07:02:55;;;;;;;4.73;2.50;;;16.90;1.00;;;;;;5059480;28;20239;-81
2023/07/31 07:05:21;;;;;;;4.40;2.53;;;16.80;1.00;;;;;;5058791;28;20174;-82
2023/07/31 07:07:50;;;;;;;3.67;2.20;;;16.80;1.00;;;;;;5059215;28;20174;-82
2023/07/31 07:10:15;;;;;;;5.97;2.13;;;16.80;1.00;;;;;;5040116;28;20173;-81
2023/07/31 07:12:41;;;;;;;5.90;2.50;;;16.90;1.00;;;;;;5057670;28;20255;-81
2023/07/31 07:15:08;;;;;;;5.27;2.37;;;16.90;1.00;;;;;;5058244;28;20201;-81
2023/07/31 07:17:33;;;;;;;4.70;2.50;;;17.00;1.00;;;;;;5057959;28;20554;-81
2023/07/31 07:20:00;;;;;;;4.53;2.27;;;17.00;1.00;;;;;;5038852;28;20208;-81
2023/07/31 07:22:26;;;;;;;5.70;2.60;;;17.00;1.00;;;;;;5056457;28;20194;-81
2023/07/31 07:24:52;;;;;;;7.33;2.50;;;17.00;1.00;;;;;;5055965;28;20667;-81
2023/07/31 07:27:18;;;;;;;4.47;2.40;;;17.10;99.90;;;;;;5037411;28;20170;-82
2023/07/31 07:29:44;;;;;;;5.03;2.43;;;17.10;99.90;;;;;;5038878;28;20616;-81
2023/07/31 07:32:09;;;;;;;4.93;2.10;;;17.10;99.90;;;;;;5038516;28;20216;-81
2023/07/31 07:34:35;;;;;;;7.60;2.97;;;17.30;99.90;;;;;;5057649;28;20173;-82
2023/07/31 07:37:00;;;;;;;3.80;2.50;;;17.40;99.90;;;;;;5038143;28;20208;-82
2023/07/31 07:39:26;;;;;;;4.80;2.40;;;17.40;99.90;;;;;;5039858;28;20224;-82
2023/07/31 07:41:53;;;;;;;4.03;2.53;;;17.50;1.00;;;;;;5058300;28;20721;-82
2023/07/31 07:44:18;;;;;;;7.97;2.70;;;17.50;1.00;;;;;;5058078;28;20543;-82
2023/07/31 07:46:44;;;;;;;6.00;2.50;;;17.60;1.00;;;;;;5058148;28;20170;-82
2023/07/31 07:49:09;;;;;;;4.97;2.70;;;17.70;1.00;;;;;;5039448;28;20174;-82
2023/07/31 07:51:35;;;;;;;4.93;2.30;;;17.70;99.90;;;;;;5057075;28;20686;-82
2023/07/31 07:54:01;;;;;;;6.50;2.67;;;17.60;1.00;;;;;;5056879;28;20253;-82
2023/07/31 07:56:27;;;;;;;5.00;2.80;;;17.70;1.00;;;;;;5041448;28;20234;-81
2023/07/31 07:58:53;;;;;;;4.93;2.30;;;17.80;1.00;;;;;;5038812;28;20174;-82
2023/07/31 08:01:19;;;;;;;4.33;2.37;;;17.90;99.90;;;;;;5055300;28;20237;-81
2023/07/31 08:03:45;;;;;;;5.90;2.43;;;17.90;99.90;;;;;;5039199;28;20173;-81
2023/07/31 08:06:11;;;;;;;4.40;2.50;;;17.90;99.90;;;;;;5039510;28;20209;-81
2023/07/31 08:08:37;;;;;;;4.60;2.17;;;18.00;99.90;;;;;;5038906;28;20204;-81
2023/07/31 08:11:03;;;;;;;5.07;2.27;;;18.00;32.90;;;;;;5039342;28;20264;-81
2023/07/31 08:13:29;;;;;;;5.13;2.37;;;18.10;1.00;;;;;;5040012;28;20294;-81
2023/07/31 08:15:54;;;;;;;5.50;2.50;;;18.10;1.00;;;;;;5057480;28;20223;-81
2023/07/31 08:18:20;;;;;;;6.10;2.50;;;18.20;35.00;;;;;;5038838;28;20584;-82
2023/07/31 08:20:46;;;;;;;5.83;2.47;;;18.10;1.00;;;;;;5057384;28;20680;-80
2023/07/31 08:23:12;;;;;;;5.60;2.70;;;18.20;1.00;;;;;;5038649;28;20190;-81
2023/07/31 08:25:38;;;;;;;7.37;2.60;;;18.20;93.60;;;;;;5038843;28;20197;-81
2023/07/31 08:28:04;;;;;;;7.17;3.13;;;18.20;99.90;;;;;;5056183;28;20170;-83
2023/07/31 08:30:30;;;;;;;6.23;2.87;;;18.20;99.90;;;;;;5039365;28;20177;-83
2023/07/31 08:32:56;;;;;;;5.03;2.60;;;18.00;99.90;;;;;;5039936;28;20751;-84
2023/07/31 08:35:21;;;;;;;5.77;2.47;;;18.00;50.50;;;;;;5038520;28;20177;-84
2023/07/31 08:37:47;;;;;;;4.43;2.50;;;18.10;99.90;;;;;;5057987;28;20177;-79
2023/07/31 08:40:13;;;;;;;4.93;2.57;;;18.10;99.90;;;;;;5057916;28;20201;-81
2023/07/31 08:42:44;;;;;;;6.77;2.70;;;18.10;1.00;;;;;;5040784;28;20197;-81
2023/07/31 08:45:13;;;;;;;5.27;2.53;;;18.10;1.00;;;;;;5040913;28;20173;-81
2023/07/31 08:47:39;;;;;;;6.43;3.10;;;18.20;99.90;;;;;;5039844;28;20204;-81
2023/07/31 08:50:06;;;;;;;4.10;2.53;;;18.20;99.90;;;;;;5039332;28;20177;-82
2023/07/31 08:52:31;;;;;;;4.13;2.60;;;18.20;1.00;;;;;;5038966;28;20221;-81
2023/07/31 08:54:57;;;;;;;3.70;2.50;;;18.00;99.90;;;;;;5059069;28;20205;-84
2023/07/31 08:57:24;;;;;;;4.87;2.70;;;18.00;1.00;;;;;;5057406;28;20189;-82
2023/07/31 08:59:50;;;;;;;4.27;2.57;;;17.90;99.90;;;;;;5056627;28;20258;-82
2023/07/31 09:02:18;;;;;;;3.47;2.40;;;17.90;1.00;;;;;;5038918;28;20239;-81
2023/07/31 09:04:44;;;;;;;4.73;2.63;;;17.90;1.00;;;;;;5038970;28;20185;-81
2023/07/31 09:07:13;;;;;;;6.20;2.90;;;17.80;1.00;;;;;;5038965;28;20173;-80
2023/07/31 09:09:38;;;;;;;4.10;2.50;;;17.90;1.00;;;;;;5056893;28;20235;-80
2023/07/31 09:12:05;;;;;;;4.90;2.67;;;17.90;1.00;;;;;;5057136;28;20197;-84
2023/07/31 09:14:32;;;;;;;7.97;3.07;;;17.90;1.00;;;;;;5057130;28;20174;-80
2023/07/31 09:16:59;;;;;;;6.10;2.80;;;18.00;1.00;;;;;;5056599;28;20608;-80
2023/07/31 09:19:34;;;;;;;5.40;2.73;;;18.10;1.00;;;;;;5055740;28;20244;-80
2023/07/31 09:22:00;;;;;;;3.57;2.53;;;18.20;99.90;;;;;;5030763;28;20216;-82
2023/07/31 09:24:30;;;;;;;5.57;2.70;;;18.30;99.90;;;;;;5057123;28;20644;-81
2023/07/31 09:26:58;;;;;;;3.27;2.37;;;18.50;99.90;;;;;;5027404;28;20317;-84
2023/07/31 09:29:26;;;;;;;8.23;3.13;;;18.80;28.90;;;;;;5057875;28;20184;-82
2023/07/31 09:31:52;;;;;;;11.23;4.40;;;19.10;99.90;;;;;;5048785;28;20206;-83
2023/07/31 09:34:18;;;;;;;5.10;2.90;;;19.20;39.40;;;;;;5039690;28;20182;-80
2023/07/31 09:36:44;;;;;;;5.50;2.37;;;19.30;1.00;;;;;;5057613;28;20177;-83
2023/07/31 09:39:11;;;;;;;5.00;2.60;;;19.40;1.00;;;;;;5042231;28;20179;-84
2023/07/31 09:41:42;;;;;;;3.73;2.60;;;19.40;1.00;;;;;;5041827;28;20578;-83
2023/07/31 09:44:08;;;;;;;4.37;3.00;;;19.40;99.90;;;;;;5042715;28;20651;-84
2023/07/31 09:46:37;;;;;;;5.53;2.63;;;19.40;1.00;;;;;;5042108;28;20169;-84
2023/07/31 09:49:10;;;;;;;4.53;2.50;;;19.50;1.00;;;;;;5059836;28;20265;-85
2023/07/31 09:51:40;;;;;;;5.53;2.53;;;19.50;1.00;;;;;;5057885;28;20633;-84
2023/07/31 09:54:16;;;;;;;6.20;2.70;;;19.50;1.00;;;;;;5039753;28;20628;-85
2023/07/31 09:56:44;;;;;;;5.10;2.70;;;19.60;99.90;;;;;;5039594;28;20259;-85
2023/07/31 09:59:13;;;;;;;5.03;2.60;;;19.60;1.00;;;;;;5060085;28;20260;-84
2023/07/31 10:01:40;;;;;;;4.67;2.50;;;19.60;1.00;;;;;;5059527;28;20696;-82
2023/07/31 10:04:09;;;;;;;5.63;2.73;;;19.40;99.90;;;;;;5038853;28;20196;-84
2023/07/31 10:06:35;;;;;;;5.60;2.33;;;19.40;99.90;;;;;;5038432;28;20173;-82
2023/07/31 10:09:06;;;;;;;4.03;2.60;;;19.30;1.00;;;;;;5056596;28;20177;-82
2023/07/31 10:11:37;;;;;;;5.43;2.88;;;19.30;1.00;;;;;;5056298;28;20621;-82
2023/07/31 10:14:05;;;;;;;3.72;2.45;;;19.30;1.00;;;;;;5038009;28;20182;-81
2023/07/31 10:16:31;;;;;;;5.70;2.60;;;19.20;99.90;;;;;;5055568;28;20208;-82
2023/07/31 10:18:57;;;;;;;4.30;2.70;;;19.10;1.00;;;;;;5037959;28;20177;-81
2023/07/31 10:21:23;;;;;;;3.93;2.43;;;19.10;99.90;;;;;;5055268;28;20201;-81
2023/07/31 10:23:50;;;;;;;4.73;2.53;;;19.10;99.90;;;;;;5037387;28;20231;-80
2023/07/31 10:26:17;;;;;;;3.83;2.37;;;19.20;1.00;;;;;;5055998;28;20174;-80
2023/07/31 10:28:44;;;;;;;5.40;2.83;;;19.20;1.00;;;;;;5037248;28;20180;-80
2023/07/31 10:31:10;;;;;;;5.17;2.63;;;19.00;1.00;;;;;;5055044;28;20198;-81
2023/07/31 10:33:37;;;;;;;5.97;2.60;;;18.80;1.00;;;;;;5042551;23;20231;-85
2023/07/31 10:36:21;;;;;;;3.90;2.40;;;18.70;1.00;;;;;;5013929;28;20175;-86
2023/07/31 10:38:50;;;;;;;5.57;2.93;;;18.60;1.00;;;;;;5015011;28;20255;-87
2023/07/31 10:41:16;;;;;;;4.80;2.90;;;18.70;1.00;;;;;;5013307;28;20209;-86
2023/07/31 10:43:41;;;;;;;5.03;2.93;;;18.60;1.00;;;;;;5013607;28;20195;-85
2023/07/31 10:46:09;;;;;;;5.67;2.53;;;18.50;1.00;;;;;;5012997;28;20175;-86
2023/07/31 10:48:36;;;;;;;4.70;2.73;;;18.60;99.90;;;;;;5013058;28;20205;-84
2023/07/31 10:51:08;;;;;;;4.63;2.70;;;18.70;99.90;;;;;;5013219;28;20598;-86
2023/07/31 10:53:34;;;;;;;4.57;2.90;;;18.70;1.00;;;;;;5013397;28;20198;-86
2023/07/31 10:56:04;;;;;;;3.97;2.60;;;18.70;99.90;;;;;;5012914;28;20544;-84
2023/07/31 10:58:31;;;;;;;5.83;3.07;;;18.60;1.00;;;;;;5012007;28;20179;-84
2023/07/31 11:00:59;;;;;;;7.27;3.10;;;18.60;1.00;;;;;;5012747;28;20233;-84
2023/07/31 11:03:56;;;;;;;4.57;3.00;;;18.50;1.00;;;;;;5011717;28;20191;-84
2023/07/31 11:06:22;;;;;;;6.43;2.77;;;18.50;99.90;;;;;;5013210;28;20218;-84
2023/07/31 11:08:50;;;;;;;5.20;2.90;;;18.60;1.00;;;;;;5012071;28;20163;-85
2023/07/31 11:11:18;;;;;;;4.53;2.87;;;18.70;24.20;;;;;;5011679;28;20290;-84
2023/07/31 11:13:52;;;;;;;5.80;2.87;;;18.70;1.00;;;;;;5012491;28;20192;-84
2023/07/31 11:16:20;;;;;;;5.23;2.77;;;18.60;1.00;;;;;;5011763;28;20213;-84
2023/07/31 11:18:48;;;;;;;4.57;2.70;;;18.60;1.00;;;;;;5011694;28;20179;-84
2023/07/31 11:21:14;;;;;;;6.67;3.10;;;18.60;7.40;;;;;;5011398;28;20206;-84
2023/07/31 11:23:40;;;;;;;5.13;3.13;;;18.70;1.00;;;;;;5012521;28;20187;-84
2023/07/31 11:26:07;;;;;;;5.83;2.90;;;18.60;1.00;;;;;;5011408;28;20290;-83
2023/07/31 11:28:34;;;;;;;6.33;2.97;;;18.50;1.00;;;;;;5013129;28;20167;-83
2023/07/31 11:31:01;;;;;;;5.47;2.90;;;18.50;1.00;;;;;;5011623;28;20202;-83
2023/07/31 11:33:27;;;;;;;5.67;2.83;;;18.50;1.00;;;;;;5012657;28;20237;-85
2023/07/31 11:35:52;;;;;;;5.03;3.00;;;18.40;1.00;;;;;;5011448;28;20179;-84
2023/07/31 11:38:30;;;;;;;3.87;2.50;;;18.40;1.00;;;;;;5011430;28;20202;-85
2023/07/31 11:41:04;;;;;;;4.13;2.73;;;18.40;1.00;;;;;;5012372;28;20203;-83
2023/07/31 11:43:33;;;;;;;4.70;2.90;;;18.40;1.00;;;;;;5013928;28;20236;-82
2023/07/31 11:46:02;;;;;;;4.53;2.57;;;18.50;1.00;;;;;;5012351;28;20229;-83
2023/07/31 11:48:29;;;;;;;5.17;2.90;;;18.60;1.00;;;;;;5012850;28;20258;-83
2023/07/31 11:51:00;;;;;;;6.53;2.83;;;18.60;1.00;;;;;;5013109;28;20178;-86
2023/07/31 11:53:40;;;;;;;4.60;3.30;;;18.50;1.00;;;;;;5012300;28;20709;-84
2023/07/31 11:56:08;;;;;;;4.23;2.60;;;18.40;72.00;;;;;;5012276;28;20213;-83
2023/07/31 11:58:35;;;;;;;3.67;2.90;;;18.40;1.00;;;;;;5014218;28;20182;-82
2023/07/31 12:01:01;;;;;;;5.20;3.07;;;18.40;99.90;;;;;;5013511;28;20207;-83
2023/07/31 12:03:27;;;;;;;5.80;3.23;;;18.40;99.90;;;;;;5012185;28;20186;-82
2023/07/31 12:05:56;;;;;;;5.23;2.90;;;18.40;95.50;;;;;;5011065;28;20167;-83
2023/07/31 12:08:23;;;;;;;6.30;3.10;;;18.40;25.00;;;;;;5012540;28;20175;-82
2023/07/31 12:10:53;;;;;;;5.87;3.03;;;18.50;99.90;;;;;;5012078;28;20185;-82
2023/07/31 12:13:24;;;;;;;6.17;2.97;;;18.50;93.80;;;;;;5014553;28;20195;-83
2023/07/31 12:15:56;;;;;;;6.57;3.20;;;18.60;14.50;;;;;;5017411;28;20167;-82
2023/07/31 12:18:22;;;;;;;4.57;3.13;;;18.50;99.90;;;;;;5017144;28;20175;-82
2023/07/31 12:20:59;;;;;;;6.63;2.83;;;18.60;34.80;;;;;;5015292;28;20198;-82
2023/07/31 12:23:29;;;;;;;4.30;2.80;;;18.50;1.00;;;;;;5016738;28;20198;-82
2023/07/31 12:26:11;;;;;;;5.90;3.00;;;18.50;1.00;;;;;;5015609;28;20198;-84
2023/07/31 12:28:57;;;;;;;5.07;3.07;;;18.50;1.00;;;;;;5016766;28;20175;-83
2023/07/31 12:31:23;;;;;;;6.27;3.00;;;18.50;1.00;;;;;;5015764;28;20174;-83
2023/07/31 12:33:50;;;;;;;3.77;2.90;;;18.50;1.00;;;;;;5015412;28;20366;-83
2023/07/31 12:36:17;;;;;;;5.23;2.80;;;18.50;1.00;;;;;;5015301;28;20293;-82
2023/07/31 12:38:44;;;;;;;6.20;2.90;;;18.70;1.00;;;;;;5016322;28;20673;-82
2023/07/31 12:41:10;;;;;;;4.23;2.67;;;18.70;1.00;;;;;;5016062;28;20202;-83
2023/07/31 12:43:38;;;;;;;5.30;2.87;;;18.80;1.00;;;;;;5016604;28;20195;-83
2023/07/31 12:46:04;;;;;;;6.83;3.00;;;18.80;1.00;;;;;;5016268;28;20262;-84
2023/07/31 12:48:32;;;;;;;6.93;2.83;;;18.80;1.00;;;;;;5015379;28;20695;-84